createdAt,value
2019-03-05T00:00:45.151Z,9.50
2019-03-05T00:03:14.061Z,9.40
2019-03-05T00:05:40.230Z,9.40
2019-03-05T00:08:06.530Z,9.40
2019-03-05T00:10:32.727Z,9.40
2019-03-05T00:12:58.969Z,9.40
2019-03-05T00:15:27.259Z,9.40
2019-03-05T00:17:53.653Z,9.40
2019-03-05T00:20:20.881Z,9.40
2019-03-05T00:22:47.061Z,9.40
2019-03-05T00:25:19.571Z,9.40
2019-03-05T00:27:49.636Z,9.40
2019-03-05T00:30:37.792Z,9.40
2019-03-05T00:33:16.810Z,9.40
2019-03-05T00:35:49.458Z,9.40
2019-03-05T00:38:22.275Z,9.40
2019-03-05T00:41:04.108Z,9.30
2019-03-05T00:43:36.913Z,9.40
2019-03-05T00:46:19.341Z,9.30
2019-03-05T00:48:52.471Z,9.40
2019-03-05T00:51:37.026Z,9.40
2019-03-05T00:54:12.346Z,9.40
2019-03-05T00:57:03.675Z,9.40
2019-03-05T00:59:36.376Z,9.40
2019-03-05T01:02:21.798Z,9.40
2019-03-05T01:05:03.789Z,9.40
2019-03-05T01:07:30.083Z,9.40
2019-03-05T01:09:56.445Z,9.40
2019-03-05T01:12:25.340Z,9.40
2019-03-05T01:14:52.008Z,9.40
2019-03-05T01:17:18.383Z,9.50
2019-03-05T01:19:44.574Z,9.50
2019-03-05T01:22:10.849Z,9.40
2019-03-05T01:24:37.031Z,9.20
2019-03-05T01:27:03.320Z,9.00
2019-03-05T01:29:29.493Z,8.90
2019-03-05T01:31:57.574Z,8.70
2019-03-05T01:34:25.674Z,8.70
2019-03-05T01:36:56.375Z,8.70
2019-03-05T01:39:24.453Z,8.70
2019-03-05T01:41:50.622Z,8.80
2019-03-05T01:44:16.796Z,8.80
2019-03-05T01:46:42.980Z,8.80
2019-03-05T01:49:09.155Z,8.90
2019-03-05T01:51:35.340Z,8.90
2019-03-05T01:54:01.533Z,8.90
2019-03-05T01:56:30.259Z,9.00
2019-03-05T01:58:56.435Z,9.00
2019-03-05T02:01:25.499Z,9.10
2019-03-05T02:03:51.661Z,9.10
2019-03-05T02:06:19.029Z,9.20
2019-03-05T02:08:45.205Z,9.20
2019-03-05T02:11:17.623Z,9.20
2019-03-05T02:13:47.017Z,9.20
2019-03-05T02:16:13.184Z,9.20
2019-03-05T02:18:39.371Z,9.30
2019-03-05T02:21:11.645Z,9.30
2019-03-05T02:23:50.648Z,9.40
2019-03-05T02:26:41.610Z,9.40
2019-03-05T02:29:23.449Z,9.40
2019-03-05T02:32:17.897Z,9.30
2019-03-05T02:34:59.575Z,9.30
2019-03-05T02:37:32.369Z,9.30
2019-03-05T02:40:14.888Z,9.20
2019-03-05T02:42:50.927Z,9.30
2019-03-05T02:45:39.127Z,9.30
2019-03-05T02:48:21.500Z,9.30
2019-03-05T02:51:17.117Z,9.30
2019-03-05T02:54:04.990Z,9.30
2019-03-05T02:56:51.371Z,9.40
2019-03-05T02:59:19.053Z,9.20
2019-03-05T03:01:47.121Z,9.20
2019-03-05T03:04:20.751Z,9.20
2019-03-05T03:06:47.419Z,9.30
2019-03-05T03:09:29.683Z,9.20
2019-03-05T03:11:55.863Z,9.20
2019-03-05T03:14:22.037Z,9.10
2019-03-05T03:16:48.195Z,9.00
2019-03-05T03:19:14.391Z,9.00
2019-03-05T03:21:43.121Z,9.00
2019-03-05T03:24:09.319Z,8.90
2019-03-05T03:26:35.526Z,8.80
2019-03-05T03:29:01.728Z,8.70
2019-03-05T03:31:27.994Z,8.80
2019-03-05T03:33:54.174Z,8.80
2019-03-05T03:36:20.328Z,8.80
2019-03-05T03:38:46.596Z,8.80
2019-03-05T03:41:12.773Z,8.80
2019-03-05T03:43:38.937Z,8.90
2019-03-05T03:46:07.741Z,8.90
2019-03-05T03:48:33.900Z,9.00
2019-03-05T03:51:00.074Z,9.00
2019-03-05T03:53:26.306Z,9.00
2019-03-05T03:55:52.483Z,9.00
2019-03-05T03:58:18.646Z,9.00
2019-03-05T04:00:45.029Z,9.00
2019-03-05T04:03:11.283Z,8.90
2019-03-05T04:05:37.469Z,8.90
2019-03-05T04:08:03.789Z,8.90
2019-03-05T04:10:29.951Z,8.90
2019-03-05T04:12:56.130Z,8.90
2019-03-05T04:15:22.287Z,8.90
2019-03-05T04:17:48.544Z,8.80
2019-03-05T04:20:17.624Z,8.80
2019-03-05T04:22:43.774Z,8.80
2019-03-05T04:25:12.763Z,8.90
2019-03-05T04:27:38.925Z,9.00
2019-03-05T04:30:13.372Z,9.00
2019-03-05T04:32:39.554Z,9.10
2019-03-05T04:35:09.338Z,9.10
2019-03-05T04:37:35.486Z,9.00
2019-03-05T04:40:06.977Z,8.90
2019-03-05T04:42:33.134Z,8.90
2019-03-05T04:45:01.313Z,8.80
2019-03-05T04:47:27.481Z,8.70
2019-03-05T04:49:58.288Z,8.70
2019-03-05T04:52:24.669Z,8.70
2019-03-05T04:54:50.834Z,8.80
2019-03-05T04:57:17.001Z,8.80
2019-03-05T04:59:43.200Z,8.80
2019-03-05T05:02:09.674Z,8.80
2019-03-05T05:04:35.845Z,8.70
2019-03-05T05:07:04.646Z,8.30
2019-03-05T05:09:30.841Z,7.80
2019-03-05T05:11:57.013Z,7.50
2019-03-05T05:14:23.193Z,7.40
2019-03-05T05:16:49.368Z,7.20
2019-03-05T05:19:15.533Z,7.20
2019-03-05T05:21:44.513Z,7.10
2019-03-05T05:24:10.678Z,7.00
2019-03-05T05:26:36.854Z,7.00
2019-03-05T05:29:03.018Z,7.00
2019-03-05T05:31:29.184Z,7.00
2019-03-05T05:33:55.346Z,7.00
2019-03-05T05:36:27.592Z,6.90
2019-03-05T05:38:56.341Z,6.90
2019-03-05T05:41:22.519Z,6.90
2019-03-05T05:43:48.770Z,6.90
2019-03-05T05:46:15.056Z,6.90
2019-03-05T05:48:41.229Z,6.90
2019-03-05T05:51:07.400Z,6.80
2019-03-05T05:53:33.556Z,6.80
2019-03-05T05:55:59.817Z,6.90
2019-03-05T05:58:26.024Z,7.00
2019-03-05T06:00:54.182Z,7.10
2019-03-05T06:03:20.366Z,7.20
2019-03-05T06:05:46.602Z,7.10
2019-03-05T06:08:12.787Z,7.00
2019-03-05T06:10:39.006Z,7.00
2019-03-05T06:13:05.168Z,7.00
2019-03-05T06:15:31.341Z,7.00
2019-03-05T06:17:57.579Z,7.00
2019-03-05T06:20:23.741Z,7.00
2019-03-05T06:22:49.913Z,6.90
2019-03-05T06:25:16.109Z,6.90
2019-03-05T06:27:42.340Z,6.90
2019-03-05T06:30:16.836Z,6.90
2019-03-05T06:32:45.870Z,6.90
2019-03-05T06:35:12.338Z,7.00
2019-03-05T06:37:53.831Z,7.10
2019-03-05T06:40:28.903Z,7.10
2019-03-05T06:43:04.226Z,7.20
2019-03-05T06:45:33.115Z,7.20
2019-03-05T06:48:08.730Z,7.10
2019-03-05T06:50:34.885Z,7.20
2019-03-05T06:53:01.049Z,7.30
2019-03-05T06:55:27.205Z,7.40
2019-03-05T06:57:53.475Z,7.40
2019-03-05T07:00:34.614Z,7.40
2019-03-05T07:03:01.588Z,7.40
2019-03-05T07:06:23.576Z,7.40
2019-03-05T07:08:56.458Z,7.30
2019-03-05T07:11:29.381Z,7.10
2019-03-05T07:13:59.424Z,7.10
2019-03-05T07:16:38.442Z,7.10
2019-03-05T07:19:07.568Z,7.10
2019-03-05T07:22:02.303Z,7.20
2019-03-05T07:24:41.327Z,7.20
2019-03-05T07:27:27.149Z,7.20
2019-03-05T07:29:56.663Z,7.10
2019-03-05T07:32:25.577Z,7.30
2019-03-05T07:34:51.865Z,7.60
2019-03-05T07:37:18.039Z,7.80
2019-03-05T07:39:47.305Z,8.00
2019-03-05T07:42:16.200Z,8.10
2019-03-05T07:44:42.487Z,8.10
2019-03-05T07:47:08.792Z,8.10
2019-03-05T07:49:43.173Z,8.30
2019-03-05T07:52:03.123Z,8.30
2019-03-05T07:54:29.388Z,8.40
2019-03-05T07:56:58.453Z,8.50
2019-03-05T07:59:24.841Z,8.40
2019-03-05T08:01:53.960Z,8.50
2019-03-05T08:04:38.736Z,8.50
2019-03-05T08:07:04.999Z,8.50
2019-03-05T08:09:36.756Z,8.60
2019-03-05T08:12:24.657Z,8.60
2019-03-05T08:14:59.885Z,8.50
2019-03-05T08:17:46.890Z,8.50
2019-03-05T08:20:13.155Z,8.40
2019-03-05T08:22:42.311Z,8.60
2019-03-05T08:25:10.485Z,8.80
2019-03-05T08:27:36.751Z,8.90
2019-03-05T08:30:14.173Z,8.70
2019-03-05T08:32:34.875Z,8.60
2019-03-05T08:35:01.034Z,8.60
2019-03-05T08:37:27.223Z,8.60
2019-03-05T08:39:53.380Z,8.60
2019-03-05T08:42:19.547Z,8.60
2019-03-05T08:44:50.354Z,8.90
2019-03-05T08:47:13.894Z,9.20
2019-03-05T08:49:42.729Z,9.50
2019-03-05T08:52:11.477Z,9.90
2019-03-05T08:54:37.686Z,10.00
2019-03-05T08:57:03.987Z,9.90
2019-03-05T08:59:32.531Z,9.70
2019-03-05T09:01:58.379Z,9.60
2019-03-05T09:04:24.630Z,9.60
2019-03-05T09:06:53.636Z,9.80
2019-03-05T09:09:20.068Z,9.90
2019-03-05T09:12:04.714Z,10.00
2019-03-05T09:14:30.871Z,10.10
2019-03-05T09:16:57.024Z,9.90
2019-03-05T09:19:35.296Z,9.90
2019-03-05T09:22:01.444Z,9.80
2019-03-05T09:24:27.635Z,9.80
2019-03-05T09:26:53.864Z,9.70
2019-03-05T09:29:20.200Z,9.50
2019-03-05T09:31:46.356Z,9.50
2019-03-05T09:34:12.545Z,9.40
2019-03-05T09:36:49.998Z,9.40
2019-03-05T09:39:09.226Z,9.40
2019-03-05T09:41:47.839Z,9.50
2019-03-05T09:44:14.060Z,9.60
2019-03-05T09:46:42.889Z,9.60
2019-03-05T09:49:09.152Z,9.90
2019-03-05T09:51:38.309Z,10.10
2019-03-05T09:54:04.600Z,10.20
2019-03-05T09:56:49.254Z,10.40
2019-03-05T09:59:15.422Z,10.60
2019-03-05T10:01:41.967Z,10.60
2019-03-05T10:04:11.031Z,10.80
2019-03-05T10:06:55.629Z,10.80
2019-03-05T10:09:21.829Z,10.90
2019-03-05T10:11:48.217Z,11.00
2019-03-05T10:14:14.457Z,11.00
2019-03-05T10:16:40.606Z,10.90
2019-03-05T10:19:07.007Z,10.70
2019-03-05T10:21:45.903Z,10.50
2019-03-05T10:24:10.529Z,10.40
2019-03-05T10:26:47.343Z,10.40
2019-03-05T10:29:13.541Z,10.40
2019-03-05T10:31:40.135Z,10.40
2019-03-05T10:34:06.323Z,10.30
2019-03-05T10:36:32.615Z,10.10
2019-03-05T10:38:58.797Z,10.00
2019-03-05T10:41:40.204Z,9.90
2019-03-05T10:44:06.363Z,10.10
2019-03-05T10:46:32.543Z,10.30
2019-03-05T10:48:58.718Z,10.50
2019-03-05T10:51:25.168Z,10.50
2019-03-05T10:53:53.972Z,10.30
2019-03-05T10:56:20.348Z,10.30
2019-03-05T10:58:49.484Z,10.30
2019-03-05T11:01:18.200Z,10.30
2019-03-05T11:03:44.383Z,10.30
2019-03-05T11:06:13.410Z,10.40
2019-03-05T11:08:39.636Z,10.50
2019-03-05T11:11:13.633Z,10.90
2019-03-05T11:13:36.746Z,11.20
2019-03-05T11:16:04.152Z,11.40
2019-03-05T11:18:30.503Z,11.40
2019-03-05T11:20:57.156Z,11.60
2019-03-05T11:23:32.725Z,12.10
2019-03-05T11:26:00.875Z,12.60
2019-03-05T11:28:27.149Z,12.80
2019-03-05T11:30:53.502Z,12.70
2019-03-05T11:33:20.053Z,12.40
2019-03-05T11:35:48.950Z,12.20
2019-03-05T11:38:18.410Z,12.20
2019-03-05T11:40:50.858Z,12.00
2019-03-05T11:43:17.567Z,11.80
2019-03-05T11:45:44.446Z,11.90
2019-03-05T11:48:11.385Z,12.30
2019-03-05T11:51:07.465Z,12.50
2019-03-05T11:53:33.652Z,12.60
2019-03-05T11:55:59.870Z,13.00
2019-03-05T11:58:26.108Z,13.20
2019-03-05T12:01:00.020Z,13.30
2019-03-05T12:03:26.273Z,13.10
2019-03-05T12:05:52.449Z,12.90
2019-03-05T12:08:18.799Z,12.70
2019-03-05T12:10:47.909Z,12.60
2019-03-05T12:13:17.493Z,12.70
2019-03-05T12:15:46.384Z,12.80
2019-03-05T12:18:12.637Z,12.90
2019-03-05T12:20:38.796Z,13.20
2019-03-05T12:23:09.874Z,13.40
2019-03-05T12:26:08.702Z,13.30
2019-03-05T12:28:34.860Z,13.20
2019-03-05T12:31:01.141Z,13.30
2019-03-05T12:33:27.365Z,13.50
2019-03-05T12:35:53.546Z,13.30
2019-03-05T12:38:20.041Z,12.80
2019-03-05T12:40:46.203Z,12.60
2019-03-05T12:43:12.393Z,12.70
2019-03-05T12:45:38.580Z,12.90
2019-03-05T12:48:04.844Z,12.80
2019-03-05T12:50:35.887Z,12.60
2019-03-05T12:53:02.356Z,12.50
2019-03-05T12:55:28.552Z,12.40
2019-03-05T12:57:54.723Z,12.60
2019-03-05T13:00:22.894Z,12.70
2019-03-05T13:02:50.006Z,12.90
2019-03-05T13:05:16.301Z,13.30
2019-03-05T13:07:45.156Z,13.60
2019-03-05T13:10:36.032Z,13.50
2019-03-05T13:13:02.951Z,13.30
2019-03-05T13:15:39.309Z,13.10
2019-03-05T13:18:05.654Z,13.10
2019-03-05T13:20:43.970Z,13.00
2019-03-05T13:23:10.840Z,12.90
2019-03-05T13:25:38.401Z,13.60
2019-03-05T13:28:04.749Z,14.40
2019-03-05T13:30:31.518Z,15.20
2019-03-05T13:33:09.472Z,15.00
2019-03-05T13:35:54.328Z,14.40
2019-03-05T13:38:20.572Z,14.20
2019-03-05T13:40:46.743Z,14.00
2019-03-05T13:43:13.061Z,14.00
2019-03-05T13:45:50.238Z,14.00
2019-03-05T13:48:39.219Z,13.80
2019-03-05T13:51:12.320Z,13.50
2019-03-05T13:54:00.914Z,13.20
2019-03-05T13:56:42.313Z,13.20
2019-03-05T13:59:15.583Z,13.60
2019-03-05T14:01:41.800Z,17.30
2019-03-05T14:04:11.690Z,19.40
2019-03-05T14:07:08.912Z,20.20
2019-03-05T14:09:53.566Z,23.20
2019-03-05T14:12:19.876Z,21.30
2019-03-05T14:14:48.879Z,19.70
2019-03-05T14:17:17.065Z,18.50
2019-03-05T14:19:43.364Z,17.70
2019-03-05T14:22:09.643Z,17.10
2019-03-05T14:24:35.806Z,16.20
2019-03-05T14:27:02.079Z,15.50
2019-03-05T14:29:29.406Z,15.00
2019-03-05T14:31:58.578Z,14.60
2019-03-05T14:34:24.885Z,14.30
2019-03-05T14:36:54.004Z,14.30
2019-03-05T14:39:27.171Z,14.20
2019-03-05T14:41:53.822Z,14.10
2019-03-05T14:44:20.532Z,16.30
2019-03-05T14:46:55.381Z,19.90
2019-03-05T14:49:21.839Z,24.50
2019-03-05T14:51:48.226Z,23.60
2019-03-05T14:54:18.232Z,23.20
2019-03-05T14:57:03.191Z,21.40
2019-03-05T14:59:47.961Z,19.10
2019-03-05T15:02:14.274Z,17.50
2019-03-05T15:04:40.636Z,17.20
2019-03-05T15:07:09.624Z,17.00
2019-03-05T15:09:36.088Z,16.30
2019-03-05T15:12:02.681Z,15.60
2019-03-05T15:14:47.782Z,15.20
2019-03-05T15:17:32.957Z,15.00
2019-03-05T15:20:17.980Z,14.80
2019-03-05T15:23:03.259Z,14.60
2019-03-05T15:25:45.147Z,14.50
2019-03-05T15:28:11.468Z,14.20
2019-03-05T15:30:37.724Z,14.00
2019-03-05T15:33:03.939Z,13.70
2019-03-05T15:35:30.125Z,13.40
2019-03-05T15:37:56.426Z,13.20
2019-03-05T15:40:25.474Z,13.10
2019-03-05T15:43:10.975Z,13.00
2019-03-05T15:45:56.696Z,13.00
2019-03-05T15:48:23.079Z,13.10
2019-03-05T15:51:08.047Z,13.20
2019-03-05T15:53:53.287Z,13.20
2019-03-05T15:56:19.764Z,13.20
2019-03-05T15:59:04.452Z,13.20
2019-03-05T16:01:30.752Z,13.00
2019-03-05T16:03:56.920Z,12.90
2019-03-05T16:06:23.131Z,12.90
2019-03-05T16:08:49.353Z,12.90
2019-03-05T16:11:15.793Z,12.90
2019-03-05T16:14:00.769Z,12.90
2019-03-05T16:16:27.004Z,12.80
2019-03-05T16:19:12.452Z,12.70
2019-03-05T16:21:57.979Z,12.40
2019-03-05T16:24:24.151Z,12.30
2019-03-05T16:27:09.490Z,12.20
2019-03-05T16:29:35.745Z,12.20
2019-03-05T16:32:23.115Z,12.10
2019-03-05T16:34:58.199Z,12.20
2019-03-05T16:37:26.329Z,12.10
2019-03-05T16:39:54.394Z,12.20
2019-03-05T16:42:33.829Z,12.20
2019-03-05T16:45:04.917Z,12.10
2019-03-05T16:47:47.913Z,12.10
2019-03-05T16:50:18.936Z,12.10
2019-03-05T16:52:49.610Z,12.00
2019-03-05T16:55:44.863Z,12.10
2019-03-05T16:58:31.620Z,12.10
2019-03-05T17:01:32.791Z,11.90
2019-03-05T17:04:01.326Z,11.90
2019-03-05T17:06:29.416Z,11.80
2019-03-05T17:08:57.574Z,11.70
2019-03-05T17:11:34.806Z,11.70
2019-03-05T17:14:19.776Z,11.70
2019-03-05T17:16:45.944Z,11.60
2019-03-05T17:19:12.192Z,11.50
2019-03-05T17:21:38.382Z,11.50
2019-03-05T17:24:07.641Z,11.40
2019-03-05T17:26:33.971Z,11.40
2019-03-05T17:29:15.497Z,11.30
2019-03-05T17:31:41.931Z,11.20
2019-03-05T17:34:08.138Z,11.20
2019-03-05T17:36:37.172Z,11.20
2019-03-05T17:39:05.052Z,11.10
2019-03-05T17:41:43.493Z,11.10
2019-03-05T17:44:28.100Z,11.00
2019-03-05T17:46:54.292Z,10.90
2019-03-05T17:49:20.491Z,10.90
2019-03-05T17:51:46.663Z,10.90
2019-03-05T17:54:15.732Z,10.90
2019-03-05T17:56:41.910Z,10.90
2019-03-05T17:59:11.001Z,10.90
2019-03-05T18:01:37.440Z,10.80
2019-03-05T18:04:22.603Z,10.70
2019-03-05T18:06:48.879Z,10.60
2019-03-05T18:09:18.173Z,10.60
2019-03-05T18:11:47.142Z,10.50
2019-03-05T18:14:13.413Z,10.50
2019-03-05T18:16:39.625Z,10.40
2019-03-05T18:19:24.810Z,10.40
2019-03-05T18:21:53.569Z,10.30
2019-03-05T18:24:19.885Z,10.20
2019-03-05T18:26:46.120Z,10.20
2019-03-05T18:29:12.295Z,10.10
2019-03-05T18:31:38.491Z,10.10
2019-03-05T18:34:07.510Z,10.00
2019-03-05T18:36:33.788Z,10.00
2019-03-05T18:39:00.142Z,9.90
2019-03-05T18:41:29.112Z,9.80
2019-03-05T18:43:55.305Z,9.80
2019-03-05T18:46:24.041Z,9.80
2019-03-05T18:48:50.283Z,9.80
2019-03-05T18:51:16.625Z,9.70
2019-03-05T18:53:45.817Z,9.60
2019-03-05T18:56:14.890Z,9.60
2019-03-05T18:58:41.114Z,9.60
2019-03-05T19:01:09.576Z,9.50
2019-03-05T19:03:38.377Z,9.40
2019-03-05T19:06:04.557Z,9.30
2019-03-05T19:08:30.832Z,9.30
2019-03-05T19:10:57.036Z,9.30
2019-03-05T19:13:35.825Z,9.20
2019-03-05T19:16:02.832Z,9.20
2019-03-05T19:18:29.207Z,9.10
2019-03-05T19:20:55.528Z,9.10
2019-03-05T19:23:21.737Z,9.10
2019-03-05T19:25:47.997Z,9.10
2019-03-05T19:28:14.467Z,9.20
2019-03-05T19:30:50.249Z,9.20
2019-03-05T19:33:16.448Z,9.20
2019-03-05T19:35:42.710Z,9.20
2019-03-05T19:38:09.004Z,9.20
2019-03-05T19:40:43.597Z,9.20
2019-03-05T19:43:12.636Z,9.20
2019-03-05T19:45:41.518Z,9.20
2019-03-05T19:48:07.764Z,9.20
2019-03-05T19:50:33.935Z,9.20
2019-03-05T19:53:03.143Z,9.20
2019-03-05T19:55:32.345Z,9.20
2019-03-05T19:58:07.794Z,9.20
2019-03-05T20:00:52.214Z,9.10
2019-03-05T20:03:18.542Z,9.10
2019-03-05T20:05:45.311Z,9.00
2019-03-05T20:08:14.582Z,9.00
2019-03-05T20:10:41.029Z,8.90
2019-03-05T20:13:07.214Z,8.80
2019-03-05T20:15:33.654Z,8.80
2019-03-05T20:18:02.867Z,8.80
2019-03-05T20:20:32.106Z,8.80
2019-03-05T20:23:16.787Z,8.70
2019-03-05T20:25:42.994Z,8.60
2019-03-05T20:28:09.686Z,8.50
2019-03-05T20:30:51.334Z,8.50
2019-03-05T20:33:17.583Z,8.50
2019-03-05T20:35:44.083Z,8.50
2019-03-05T20:38:28.766Z,8.50
2019-03-05T20:40:55.038Z,8.40
2019-03-05T20:43:21.242Z,8.40
2019-03-05T20:45:50.630Z,8.40
2019-03-05T20:48:17.058Z,8.30
2019-03-05T20:50:43.335Z,8.30
2019-03-05T20:53:12.074Z,8.30
2019-03-05T20:55:38.288Z,8.30
2019-03-05T20:58:04.649Z,8.30
2019-03-05T21:00:32.309Z,8.30
2019-03-05T21:03:13.835Z,8.30
2019-03-05T21:05:41.599Z,8.20
2019-03-05T21:08:23.032Z,8.20
2019-03-05T21:10:51.229Z,8.20
2019-03-05T21:13:17.637Z,8.10
2019-03-05T21:15:44.130Z,8.20
2019-03-05T21:18:18.738Z,8.20
2019-03-05T21:20:45.182Z,8.20
2019-03-05T21:23:11.571Z,8.10
2019-03-05T21:25:40.675Z,8.10
2019-03-05T21:28:06.928Z,8.10
2019-03-05T21:30:35.838Z,8.10
2019-03-05T21:33:02.237Z,8.00
2019-03-05T21:35:31.431Z,8.00
2019-03-05T21:38:00.401Z,8.00
2019-03-05T21:40:28.069Z,8.00
2019-03-05T21:43:12.950Z,8.00
2019-03-05T21:45:42.493Z,8.00
2019-03-05T21:48:11.644Z,8.00
2019-03-05T21:50:53.279Z,7.90
2019-03-05T21:53:19.959Z,7.90
2019-03-05T21:55:49.019Z,7.90
2019-03-05T21:58:30.539Z,7.80
2019-03-05T22:01:14.950Z,7.70
2019-03-05T22:03:41.227Z,7.70
2019-03-05T22:06:07.478Z,7.70
2019-03-05T22:08:33.703Z,7.80
2019-03-05T22:10:59.929Z,7.80
2019-03-05T22:13:26.233Z,7.80
2019-03-05T22:15:52.448Z,7.80
2019-03-05T22:18:18.698Z,7.80
2019-03-05T22:20:44.994Z,7.90
2019-03-05T22:23:11.295Z,7.90
2019-03-05T22:25:37.516Z,7.90
2019-03-05T22:28:03.915Z,7.90
2019-03-05T22:30:36.534Z,7.90
2019-03-05T22:33:03.442Z,7.90
2019-03-05T22:35:41.782Z,7.80
2019-03-05T22:38:07.974Z,7.80
2019-03-05T22:40:34.162Z,7.80
2019-03-05T22:43:02.939Z,7.80
2019-03-05T22:45:47.779Z,7.80
2019-03-05T22:48:13.925Z,7.70
2019-03-05T22:50:40.152Z,7.70
2019-03-05T22:53:06.342Z,7.70
2019-03-05T22:55:32.574Z,7.80
2019-03-05T22:57:58.818Z,7.80
2019-03-05T23:00:37.021Z,7.80
2019-03-05T23:03:06.080Z,7.80
2019-03-05T23:05:50.662Z,7.80
2019-03-05T23:08:19.397Z,7.80
2019-03-05T23:10:48.892Z,7.80
2019-03-05T23:13:17.842Z,7.70
2019-03-05T23:15:44.131Z,7.70
2019-03-05T23:18:13.498Z,7.70
2019-03-05T23:20:58.338Z,7.70
2019-03-05T23:23:24.848Z,7.60
2019-03-05T23:25:51.251Z,7.60
2019-03-05T23:28:31.401Z,7.70
2019-03-05T23:30:57.598Z,7.70
2019-03-05T23:33:24.189Z,7.80
2019-03-05T23:36:05.810Z,7.80
2019-03-05T23:38:35.384Z,7.80
2019-03-05T23:41:01.582Z,7.90
2019-03-05T23:43:27.953Z,7.90
2019-03-05T23:45:54.225Z,7.90
2019-03-05T23:48:20.452Z,7.90
2019-03-05T23:50:46.632Z,8.00
2019-03-05T23:53:13.228Z,8.00
2019-03-05T23:55:39.382Z,8.00
2019-03-05T23:58:05.569Z,8.00
